Аэропорт: Кадала. Чита

ICAO: UIAA

METAR:
2019-07-23 18:30:00
UIAA 231830Z AUTO 02003MPS 9999 NCD 11/10 Q1008 RMK QFE698/0930
METAR:
2019-07-23 17:00:00
TAF UIAA 231700Z 2318/2418 02003G08MPS 9999 SCT040CB TEMPO 2318/2324 0500 FG VV001